»·PEaware :: N982CA KCNO-KSBA

N982CA :: KCNO-KSBA

FLIGHT INFORMATION

Flight Status: Arrived
Operator: Privately registered:
United States
More flights under this callsign
Pilot: Anonymous 15639 (15639)
Aircraft: Unknown
(DA62)
More flights by this aircraft type
Origin: KCNO Chino
United States
Destination: KSBA Santa Barbara Mun
United States
More flights between these airports :: More routes between these airports
Route: PDZ V186 DEANO V27 KWANG
File this flight plan on PilotEdge
Remarks: TEC route ONTP16
Altitude:
(Current/Filed)
6,000ft
Speed:
(Current/Filed)
170kts
Departed: 28-Sep-18 04:44 PM
Arrived: 28-Sep-18 05:38 PM
Distance/Time
Traveled:
113nm/0:54
Distance/Time
To Go:
Arrived

Flight Plot

Page will automatically refresh every two minutes.


Map Options




Map Legend


Flown Route
Filed Route
Departure Airport
Arrival Airport
Navaid (VOR, NDB)
Fix

Horizontal Profiles

Position Reports

Time Latitude Longitude Heading Altitude Ground
Speed
28-Sep-18 16:23 33.977634 -117.636136 136 653ft 0kts
28-Sep-18 16:24 33.977634 -117.636136 136 653ft 0kts
28-Sep-18 16:25 33.977634 -117.636136 136 653ft 0kts
28-Sep-18 16:26 33.977634 -117.636136 136 653ft 0kts
28-Sep-18 16:27 33.977634 -117.636136 136 653ft 0kts
28-Sep-18 16:28 33.977634 -117.636136 136 653ft 0kts
28-Sep-18 16:29 33.977634 -117.636136 136 653ft 0kts
28-Sep-18 16:30 33.977634 -117.636136 136 653ft 0kts
28-Sep-18 16:31 33.977634 -117.636136 136 653ft 0kts
28-Sep-18 16:32 33.977634 -117.636136 136 653ft 0kts
28-Sep-18 16:33 33.977634 -117.636136 136 653ft 0kts
28-Sep-18 16:34 33.977634 -117.636136 136 653ft 0kts
28-Sep-18 16:35 33.977634 -117.636136 136 653ft 0kts
28-Sep-18 16:36 33.977634 -117.636136 136 653ft 0kts
28-Sep-18 16:37 33.977634 -117.636136 136 653ft 0kts
28-Sep-18 16:38 33.977634 -117.636136 136 653ft 0kts
28-Sep-18 16:39 33.977634 -117.636136 136 653ft 0kts
28-Sep-18 16:40 33.977634 -117.636136 136 653ft 0kts
28-Sep-18 16:41 33.977634 -117.636136 136 653ft 0kts
28-Sep-18 16:42 33.977338 -117.635781 51 653ft 5kts
28-Sep-18 16:43 33.979385 -117.633336 42 653ft 11kts
28-Sep-18 16:44 33.980815 -117.631197 145 653ft 0kts
28-Sep-18 16:45 33.979963 -117.630822 223 653ft 12kts
28-Sep-18 16:46 33.968252 -117.651033 269 1215ft 100kts
28-Sep-18 16:47 33.970702 -117.684385 278 2430ft 104kts
28-Sep-18 16:48 33.984168 -117.715974 285 3616ft 106kts
28-Sep-18 16:49 33.995635 -117.749418 288 4672ft 113kts
28-Sep-18 16:50 34.007290 -117.785666 285 5685ft 118kts
28-Sep-18 16:51 34.020308 -117.827819 286 6033ft 157kts
28-Sep-18 16:52 34.036477 -117.879972 287 6029ft 172kts
28-Sep-18 16:53 34.053319 -117.934568 287 6027ft 174kts
28-Sep-18 16:54 34.070275 -117.989652 287 6025ft 175kts
28-Sep-18 16:55 34.087267 -118.044938 287 6022ft 176kts
28-Sep-18 16:56 34.104300 -118.100446 287 6007ft 177kts
28-Sep-18 16:57 34.121299 -118.155977 287 6002ft 177kts
28-Sep-18 16:58 34.138365 -118.211944 286 5998ft 177kts
28-Sep-18 16:59 34.155458 -118.268168 286 5994ft 179kts
28-Sep-18 17:00 34.172727 -118.324927 286 5990ft 181kts
28-Sep-18 17:01 34.172146 -118.382537 252 5993ft 174kts
28-Sep-18 17:02 34.160115 -118.439046 252 5996ft 173kts
28-Sep-18 17:03 34.149896 -118.485956 252 5999ft 172kts
28-Sep-18 17:04 34.150280 -118.553491 271 6004ft 174kts
28-Sep-18 17:05 34.154204 -118.611566 271 6006ft 173kts
28-Sep-18 17:06 34.157472 -118.659776 271 6009ft 172kts
28-Sep-18 17:07 34.161455 -118.717419 271 6012ft 172kts
28-Sep-18 17:08 34.167624 -118.784084 281 6012ft 172kts
28-Sep-18 17:09 34.177219 -118.830726 280 6004ft 171kts
28-Sep-18 17:10 34.188273 -118.886678 280 6002ft 171kts
28-Sep-18 17:11 34.199191 -118.942564 280 6001ft 170kts
28-Sep-18 17:12 34.210036 -118.998291 280 6001ft 170kts
28-Sep-18 17:13 34.220877 -119.054167 280 6000ft 170kts
28-Sep-18 17:14 34.231614 -119.109686 280 5999ft 169kts
28-Sep-18 17:15 34.242312 -119.165099 280 5999ft 168kts
28-Sep-18 17:16 34.252922 -119.220198 281 5999ft 168kts
28-Sep-18 17:17 34.263494 -119.275238 281 5999ft 168kts
28-Sep-18 17:18 34.274060 -119.330250 281 5999ft 167kts
28-Sep-18 17:19 34.284542 -119.385073 281 5794ft 166kts
28-Sep-18 17:20 34.294828 -119.439053 281 5287ft 164kts
28-Sep-18 17:21 34.305052 -119.492865 281 4999ft 163kts
28-Sep-18 17:22 34.320009 -119.544580 291 4998ft 163kts
28-Sep-18 17:23 34.338081 -119.594887 291 4998ft 163kts
28-Sep-18 17:24 34.356094 -119.645163 291 4998ft 163kts
28-Sep-18 17:25 34.374160 -119.695657 290 5000ft 163kts
28-Sep-18 17:26 34.382681 -119.747613 262 5000ft 160kts
28-Sep-18 17:27 34.378081 -119.801529 262 4745ft 162kts
28-Sep-18 17:28 34.373255 -119.855972 262 4246ft 162kts
28-Sep-18 17:29 34.368330 -119.909919 262 4000ft 160kts
28-Sep-18 17:30 34.363455 -119.963268 262 3999ft 158kts
28-Sep-18 17:31 34.358618 -120.016339 262 3999ft 158kts
28-Sep-18 17:32 34.353742 -120.069294 262 3997ft 158kts
28-Sep-18 17:33 34.383401 -120.097603 352 3524ft 170kts
28-Sep-18 17:34 34.420984 -120.075742 67 2993ft 164kts
28-Sep-18 17:35 34.423900 -120.022937 89 2878ft 155kts
28-Sep-18 17:36 34.425027 -119.971351 89 1968ft 142kts
28-Sep-18 17:37 34.425890 -119.930577 90 1355ft 105kts
28-Sep-18 17:38 34.426564 -119.896557 89 747ft 96kts
28-Sep-18 17:39 34.427320 -119.863983 90 209ft 96kts
28-Sep-18 17:40 34.428407 -119.846250 32 17ft 5kts
28-Sep-18 17:41 34.429318 -119.844289 62 17ft 7kts
28-Sep-18 17:42 34.430221 -119.843127 152 17ft 0kts
28-Sep-18 17:43 34.430221 -119.843127 152 17ft 0kts
28-Sep-18 17:44 34.430221 -119.843127 152 17ft 0kts
28-Sep-18 17:45 34.430221 -119.843127 152 17ft 0kts
28-Sep-18 17:46 34.430221 -119.843127 152 17ft 0kts

Navigation Log

Ident Type
Flight plan parsing failed, navigation log unavailable